Time;durP1;ratioP1;P1;durP2;ratioP2;P2;SDS_P1;SDS_P2;PMS_P1;PMS_P2;Temp;Humidity;BMP_temperature;BMP_pressure;BME280_temperature;BME280_humidity;BME280_pressure;Samples;Min_cycle;Max_cycle;Signal;HPM_P1;HPM_P2
2023/06/23 00:00:32;;;;;;;37.83;16.48;;;;;;;;;;6175669;23;20418;-62
2023/06/23 00:03:25;;;;;;;40.88;15.85;;;;;;;;;;6176593;23;20020;-63
2023/06/23 00:06:18;;;;;;;48.03;16.38;;;;;;;;;;6177919;23;20486;-62
2023/06/23 00:09:17;;;;;;;46.38;18.70;;;;;;;;;;6177086;23;20071;-63
2023/06/23 00:12:03;;;;;;;44.97;16.95;;;;;;;;;;6177723;23;20095;-50
2023/06/23 00:14:56;;;;;;;49.22;18.58;;;;;;;;;;6178209;23;20091;-47
2023/06/23 00:17:44;;;;;;;48.00;17.17;;;;;;;;;;6177298;23;20386;-47
2023/06/23 00:20:38;;;;;;;44.20;17.65;;;;;;;;;;6176966;23;20083;-47
2023/06/23 00:23:32;;;;;;;66.40;20.20;;;;;;;;;;6175156;23;20366;-51
2023/06/23 00:26:14;;;;;;;42.55;17.92;;;;;;;;;;6174177;23;20021;-60
2023/06/23 00:28:41;;;;;;;51.45;18.90;;;;;;;;;;6178795;23;20348;-55
2023/06/23 00:31:16;;;;;;;44.17;17.65;;;;;;;;;;6177699;23;20025;-57
2023/06/23 00:33:43;;;;;;;63.90;19.52;;;;;;;;;;6177109;23;20021;-59
2023/06/23 00:36:10;;;;;;;47.83;19.10;;;;;;;;;;6177639;23;20103;-59
2023/06/23 00:38:44;;;;;;;53.88;18.58;;;;;;;;;;6178712;23;20025;-58
2023/06/23 00:41:11;;;;;;;53.30;17.83;;;;;;;;;;6177056;23;20055;-58
2023/06/23 00:43:50;;;;;;;52.20;19.35;;;;;;;;;;6177197;23;20025;-64
2023/06/23 00:46:32;;;;;;;64.80;18.58;;;;;;;;;;6176938;23;20057;-62
2023/06/23 00:49:27;;;;;;;54.45;18.10;;;;;;;;;;6177374;23;20021;-63
2023/06/23 00:52:14;;;;;;;49.47;18.83;;;;;;;;;;6173113;23;20466;-63
2023/06/23 00:55:07;;;;;;;47.90;18.60;;;;;;;;;;6177207;23;20021;-63
2023/06/23 00:58:02;;;;;;;56.20;20.05;;;;;;;;;;6177622;23;20021;-57
2023/06/23 01:00:56;;;;;;;52.97;20.67;;;;;;;;;;6175704;23;20024;-54
2023/06/23 01:03:43;;;;;;;70.38;22.02;;;;;;;;;;6177066;23;20021;-51
2023/06/23 01:07:09;;;;;;;58.15;20.38;;;;;;;;;;6178218;23;20048;-53
2023/06/23 01:10:09;;;;;;;68.75;20.70;;;;;;;;;;6116011;23;20403;-55
2023/06/23 01:13:02;;;;;;;54.47;20.00;;;;;;;;;;6177240;23;20032;-53
2023/06/23 01:15:55;;;;;;;58.85;20.08;;;;;;;;;;6175845;23;20075;-54
2023/06/23 01:18:57;;;;;;;49.70;19.77;;;;;;;;;;6177939;23;20028;-54
2023/06/23 01:21:47;;;;;;;54.13;19.50;;;;;;;;;;6176851;23;20024;-54
2023/06/23 01:24:57;;;;;;;56.83;22.00;;;;;;;;;;6175548;23;20025;-54
2023/06/23 01:27:58;;;;;;;50.33;20.58;;;;;;;;;;6179073;23;20486;-63
2023/06/23 01:30:53;;;;;;;45.85;19.80;;;;;;;;;;6176135;23;20091;-62
2023/06/23 01:33:48;;;;;;;56.47;20.45;;;;;;;;;;6177055;23;20068;-63
2023/06/23 01:36:39;;;;;;;63.25;22.88;;;;;;;;;;6177014;23;20025;-54
2023/06/23 01:39:35;;;;;;;63.95;20.88;;;;;;;;;;6175712;23;20060;-46
2023/06/23 01:42:33;;;;;;;61.95;21.65;;;;;;;;;;6177041;23;20083;-63
2023/06/23 01:45:27;;;;;;;53.75;19.42;;;;;;;;;;6176845;23;20021;-63
2023/06/23 01:48:15;;;;;;;66.22;22.02;;;;;;;;;;6175063;23;20202;-63
2023/06/23 01:51:09;;;;;;;56.92;20.10;;;;;;;;;;6176317;23;20080;-63
2023/06/23 01:53:56;;;;;;;65.82;22.60;;;;;;;;;;6175893;23;20474;-64
2023/06/23 01:56:51;;;;;;;57.13;20.13;;;;;;;;;;6176508;23;20028;-53
2023/06/23 01:59:39;;;;;;;52.72;20.60;;;;;;;;;;6174567;23;20454;-65
2023/06/23 02:02:33;;;;;;;62.78;20.90;;;;;;;;;;6174033;23;20021;-63
2023/06/23 02:05:22;;;;;;;52.67;20.83;;;;;;;;;;6174501;23;20044;-63
2023/06/23 02:08:16;;;;;;;59.13;20.73;;;;;;;;;;6174959;23;20021;-63
2023/06/23 02:11:05;;;;;;;57.13;20.92;;;;;;;;;;6176679;23;20021;-63
2023/06/23 02:13:59;;;;;;;59.28;21.98;;;;;;;;;;6170504;23;20025;-63
2023/06/23 02:16:47;;;;;;;60.03;21.27;;;;;;;;;;6176658;23;20025;-50
2023/06/23 02:19:42;;;;;;;57.35;20.25;;;;;;;;;;6177057;23;20040;-49
2023/06/23 02:22:30;;;;;;;;;;;;;;;;;;6176633;23;20033;-51
2023/06/23 02:25:29;;;;;;;55.17;20.70;;;;;;;;;;6174887;23;19967;-50
2023/06/23 02:28:16;;;;;;;56.88;19.98;;;;;;;;;;6176030;23;20032;-51
2023/06/23 02:31:10;;;;;;;46.80;19.70;;;;;;;;;;6175141;23;20446;-51
2023/06/23 02:33:58;;;;;;;53.67;20.98;;;;;;;;;;6176692;23;20436;-54
2023/06/23 02:36:55;;;;;;;58.08;21.02;;;;;;;;;;6177030;23;20021;-52
2023/06/23 02:39:46;;;;;;;71.97;22.65;;;;;;;;;;6171645;23;20075;-51
2023/06/23 02:42:42;;;;;;;48.20;19.30;;;;;;;;;;6173985;23;20021;-50
2023/06/23 02:45:31;;;;;;;58.55;22.73;;;;;;;;;;6176797;23;20028;-54
2023/06/23 02:48:26;;;;;;;52.72;21.42;;;;;;;;;;6172972;23;20021;-50
2023/06/23 02:51:22;;;;;;;48.45;20.08;;;;;;;;;;6175676;23;20025;-51
2023/06/23 02:54:18;;;;;;;61.95;23.08;;;;;;;;;;6176066;23;20021;-55
2023/06/23 02:57:14;;;;;;;54.83;21.25;;;;;;;;;;6175293;23;20115;-56
2023/06/23 03:00:05;;;;;;;52.50;21.35;;;;;;;;;;6174630;23;20053;-55
2023/06/23 03:02:57;;;;;;;40.47;18.25;;;;;;;;;;6177384;23;20017;-50
2023/06/23 03:05:47;;;;;;;47.75;20.25;;;;;;;;;;6175560;23;20086;-55
2023/06/23 03:08:39;;;;;;;42.58;19.52;;;;;;;;;;6176099;23;20105;-50
2023/06/23 03:11:27;;;;;;;42.95;18.65;;;;;;;;;;6176743;23;20017;-50
2023/06/23 03:14:20;;;;;;;39.20;16.55;;;;;;;;;;6172052;23;20021;-53
2023/06/23 03:17:12;;;;;;;36.30;14.20;;;;;;;;;;6172357;23;20075;-46
2023/06/23 03:20:08;;;;;;;26.23;13.68;;;;;;;;;;6172976;23;20100;-51
2023/06/23 03:23:02;;;;;;;30.35;12.05;;;;;;;;;;6176789;23;20021;-51
2023/06/23 03:26:01;;;;;;;22.83;11.73;;;;;;;;;;6177230;23;20028;-46
2023/06/23 03:28:49;;;;;;;21.52;11.00;;;;;;;;;;6177873;23;20032;-48
2023/06/23 03:31:44;;;;;;;25.63;10.63;;;;;;;;;;6174108;23;20013;-58
2023/06/23 03:34:39;;;;;;;19.70;10.07;;;;;;;;;;6173792;23;20025;-57
2023/06/23 03:37:31;;;;;;;18.27;10.53;;;;;;;;;;6177034;23;20025;-58
2023/06/23 03:40:26;;;;;;;22.42;11.00;;;;;;;;;;6177779;23;20244;-60
2023/06/23 03:43:20;;;;;;;22.90;11.50;;;;;;;;;;6178828;23;20075;-59
2023/06/23 03:46:17;;;;;;;18.67;11.15;;;;;;;;;;6177798;23;20025;-54
2023/06/23 03:49:06;;;;;;;28.55;11.80;;;;;;;;;;6178104;23;20028;-60
2023/06/23 03:52:02;;;;;;;22.67;11.43;;;;;;;;;;6177793;23;20025;-60
2023/06/23 03:54:51;;;;;;;14.18;8.55;;;;;;;;;;6177314;23;20025;-60
2023/06/23 03:57:46;;;;;;;15.02;7.43;;;;;;;;;;6177680;23;20029;-57
2023/06/23 04:00:36;;;;;;;13.38;7.65;;;;;;;;;;6170530;23;20021;-60
2023/06/23 04:03:30;;;;;;;11.65;6.90;;;;;;;;;;6177035;23;20475;-63
2023/06/23 04:06:18;;;;;;;10.97;7.37;;;;;;;;;;6176577;23;20137;-48
2023/06/23 04:09:12;;;;;;;13.02;7.63;;;;;;;;;;6178238;23;20252;-54
2023/06/23 04:12:00;;;;;;;14.23;7.70;;;;;;;;;;6177131;23;20068;-56
2023/06/23 04:14:55;;;;;;;14.80;7.78;;;;;;;;;;6177494;23;20025;-56
2023/06/23 04:17:43;;;;;;;12.52;7.93;;;;;;;;;;6177913;23;20025;-56
2023/06/23 04:20:37;;;;;;;13.65;7.50;;;;;;;;;;6176620;23;20517;-55
2023/06/23 04:23:32;;;;;;;12.77;7.70;;;;;;;;;;6175605;23;20029;-57
2023/06/23 04:26:27;;;;;;;15.25;7.28;;;;;;;;;;6176250;23;20033;-55
2023/06/23 04:29:15;;;;;;;9.13;6.93;;;;;;;;;;6177822;23;20402;-56
2023/06/23 04:32:09;;;;;;;11.07;7.75;;;;;;;;;;6178057;23;20079;-49
2023/06/23 04:35:04;;;;;;;12.57;7.22;;;;;;;;;;6177982;23;20029;-47
2023/06/23 04:37:58;;;;;;;12.23;7.32;;;;;;;;;;6177235;23;20060;-50
2023/06/23 04:40:54;;;;;;;10.70;7.17;;;;;;;;;;6177000;23;20458;-53
2023/06/23 04:43:52;;;;;;;11.68;6.63;;;;;;;;;;6176977;23;20502;-60
2023/06/23 04:46:41;;;;;;;11.60;7.18;;;;;;;;;;6176371;23;20018;-60
2023/06/23 04:49:34;;;;;;;10.05;7.07;;;;;;;;;;6177973;23;20075;-60
2023/06/23 04:52:22;;;;;;;13.98;7.82;;;;;;;;;;6177160;23;20036;-60
2023/06/23 04:55:17;;;;;;;12.38;6.55;;;;;;;;;;6176146;23;20344;-60
2023/06/23 04:58:06;;;;;;;11.55;6.57;;;;;;;;;;6175648;23;20025;-60
2023/06/23 05:01:03;;;;;;;11.48;6.15;;;;;;;;;;6176484;23;20052;-50
2023/06/23 05:03:58;;;;;;;13.73;6.40;;;;;;;;;;6176393;23;20076;-52
2023/06/23 05:06:46;;;;;;;8.98;5.30;;;;;;;;;;6176443;23;20079;-54
2023/06/23 05:09:40;;;;;;;9.82;5.30;;;;;;;;;;6176171;23;20036;-55
2023/06/23 05:12:28;;;;;;;9.95;5.25;;;;;;;;;;6177844;23;20404;-55
2023/06/23 05:15:23;;;;;;;8.05;4.95;;;;;;;;;;6174939;23;20071;-51
2023/06/23 05:18:18;;;;;;;7.43;4.63;;;;;;;;;;6177765;23;20406;-52
2023/06/23 05:21:11;;;;;;;11.20;5.00;;;;;;;;;;6176960;23;20021;-52
2023/06/23 05:24:07;;;;;;;6.30;4.78;;;;;;;;;;6176800;23;20484;-51
2023/06/23 05:27:11;;;;;;;9.05;4.13;;;;;;;;;;6176996;23;20025;-54
2023/06/23 05:29:59;;;;;;;7.15;4.43;;;;;;;;;;6174822;23;20028;-58
2023/06/23 05:32:53;;;;;;;9.50;4.30;;;;;;;;;;6173317;23;20332;-55
2023/06/23 05:35:41;;;;;;;5.63;4.20;;;;;;;;;;6174414;23;20021;-49
2023/06/23 05:38:35;;;;;;;6.63;4.47;;;;;;;;;;6175166;23;20092;-51
2023/06/23 05:41:22;;;;;;;7.75;4.13;;;;;;;;;;6171437;23;20821;-51
2023/06/23 05:44:16;;;;;;;10.02;4.85;;;;;;;;;;6173487;23;20466;-51
2023/06/23 05:47:07;;;;;;;7.57;4.30;;;;;;;;;;6177308;23;20386;-51
2023/06/23 05:50:01;;;;;;;6.05;4.15;;;;;;;;;;6177524;23;20033;-52
2023/06/23 05:52:57;;;;;;;6.32;4.40;;;;;;;;;;6173146;23;20025;-54
2023/06/23 05:55:49;;;;;;;6.60;4.07;;;;;;;;;;6176750;23;20099;-53
2023/06/23 05:58:45;;;;;;;4.93;3.30;;;;;;;;;;6176013;23;20025;-58
2023/06/23 06:01:35;;;;;;;5.82;3.15;;;;;;;;;;6175932;23;20360;-54
2023/06/23 06:04:29;;;;;;;5.60;3.70;;;;;;;;;;6177453;23;20021;-61
2023/06/23 06:07:17;;;;;;;5.38;3.45;;;;;;;;;;6177024;23;20467;-60
2023/06/23 06:10:12;;;;;;;4.43;3.40;;;;;;;;;;6176574;23;20505;-61
2023/06/23 06:13:00;;;;;;;5.20;2.97;;;;;;;;;;6177817;23;20049;-60
2023/06/23 06:15:55;;;;;;;7.05;3.50;;;;;;;;;;6173597;23;20481;-47
2023/06/23 06:18:43;;;;;;;5.30;3.57;;;;;;;;;;6173598;23;20033;-62
2023/06/23 06:21:38;;;;;;;4.32;3.00;;;;;;;;;;6176826;23;20245;-60
2023/06/23 06:24:32;;;;;;;4.33;2.73;;;;;;;;;;6176082;23;20025;-61
2023/06/23 06:27:27;;;;;;;3.63;3.20;;;;;;;;;;6176442;23;20059;-61
2023/06/23 06:30:15;;;;;;;5.20;3.55;;;;;;;;;;6174526;23;20541;-62
2023/06/23 06:33:11;;;;;;;4.75;3.25;;;;;;;;;;6174137;23;20128;-50
2023/06/23 06:36:03;;;;;;;5.60;3.40;;;;;;;;;;6176012;23;20017;-59
2023/06/23 06:38:52;;;;;;;4.63;3.17;;;;;;;;;;6176200;23;20079;-58
2023/06/23 06:41:41;;;;;;;4.80;3.00;;;;;;;;;;6177351;23;20071;-59
2023/06/23 06:44:34;;;;;;;5.28;2.65;;;;;;;;;;6176935;23;20071;-59
2023/06/23 06:47:24;;;;;;;6.15;3.10;;;;;;;;;;6175827;23;20040;-59
2023/06/23 06:50:19;;;;;;;4.75;2.70;;;;;;;;;;6175408;23;20079;-60
2023/06/23 06:53:13;;;;;;;5.60;2.60;;;;;;;;;;6177120;23;20029;-65
2023/06/23 06:56:00;;;;;;;4.50;2.70;;;;;;;;;;6175606;23;20047;-67
2023/06/23 06:58:54;;;;;;;4.82;3.10;;;;;;;;;;6174436;23;20025;-67
2023/06/23 07:01:48;;;;;;;3.97;2.70;;;;;;;;;;6176751;23;20071;-50
2023/06/23 07:04:36;;;;;;;3.65;2.38;;;;;;;;;;6173785;23;20417;-61
2023/06/23 07:07:31;;;;;;;6.45;2.53;;;;;;;;;;6176689;23;20545;-61
2023/06/23 07:10:18;;;;;;;3.38;2.50;;;;;;;;;;6175962;23;20025;-61
2023/06/23 07:13:11;;;;;;;6.82;2.90;;;;;;;;;;6177079;23;20094;-61
2023/06/23 07:15:59;;;;;;;4.38;2.42;;;;;;;;;;6178321;23;20549;-61
2023/06/23 07:18:52;;;;;;;5.70;2.47;;;;;;;;;;6175147;23;20362;-61
2023/06/23 07:21:43;;;;;;;2.70;2.33;;;;;;;;;;6178427;23;20021;-51
2023/06/23 07:24:44;;;;;;;4.90;2.47;;;;;;;;;;6177023;23;20029;-52
2023/06/23 07:27:32;;;;;;;3.10;2.20;;;;;;;;;;6174541;23;20033;-49
2023/06/23 07:30:26;;;;;;;5.03;2.58;;;;;;;;;;6177748;23;20024;-54
2023/06/23 07:33:13;;;;;;;2.25;1.80;;;;;;;;;;6177870;23;20455;-60
2023/06/23 07:36:06;;;;;;;4.72;1.50;;;;;;;;;;6178006;23;20020;-60
2023/06/23 07:38:54;;;;;;;3.08;1.80;;;;;;;;;;6173858;23;20481;-60
2023/06/23 07:41:47;;;;;;;4.15;2.03;;;;;;;;;;6178058;23;20079;-60
2023/06/23 07:44:36;;;;;;;1.77;1.67;;;;;;;;;;6177437;23;20028;-61
2023/06/23 07:47:30;;;;;;;4.38;2.13;;;;;;;;;;6177485;23;20025;-60
2023/06/23 07:50:17;;;;;;;5.50;2.00;;;;;;;;;;6177726;23;20032;-51
2023/06/23 07:53:10;;;;;;;2.38;1.63;;;;;;;;;;6178024;23;20039;-51
2023/06/23 07:55:58;;;;;;;4.07;2.00;;;;;;;;;;6174838;23;20021;-52
2023/06/23 07:58:51;;;;;;;5.60;2.00;;;;;;;;;;6175415;23;20430;-53
2023/06/23 08:01:45;;;;;;;4.30;2.08;;;;;;;;;;6177636;23;20025;-60
2023/06/23 08:04:33;;;;;;;3.63;2.00;;;;;;;;;;6177532;23;20024;-60
2023/06/23 08:07:26;;;;;;;2.22;2.00;;;;;;;;;;6174465;23;20021;-60
2023/06/23 08:10:14;;;;;;;2.78;1.80;;;;;;;;;;6177908;23;20025;-60
2023/06/23 08:13:10;;;;;;;6.93;1.98;;;;;;;;;;6175904;23;20021;-59
2023/06/23 08:15:57;;;;;;;2.00;1.67;;;;;;;;;;6174940;23;20028;-60
2023/06/23 08:18:51;;;;;;;4.22;1.67;;;;;;;;;;6177018;23;20063;-61
2023/06/23 08:21:38;;;;;;;4.20;1.98;;;;;;;;;;6176319;23;20390;-60
2023/06/23 08:24:45;;;;;;;2.97;1.90;;;;;;;;;;6175389;23;20032;-60
2023/06/23 08:27:38;;;;;;;2.67;1.88;;;;;;;;;;6178325;23;20075;-60
2023/06/23 08:30:33;;;;;;;4.57;1.83;;;;;;;;;;6176953;23;20056;-61
2023/06/23 08:33:20;;;;;;;3.47;1.80;;;;;;;;;;6176235;23;20486;-60
2023/06/23 08:36:14;;;;;;;2.22;1.80;;;;;;;;;;6178019;23;20021;-53
2023/06/23 08:39:09;;;;;;;3.35;1.77;;;;;;;;;;6176192;23;20496;-53
2023/06/23 08:42:03;;;;;;;2.95;2.00;;;;;;;;;;6171811;23;20104;-51
2023/06/23 08:44:51;;;;;;;4.03;1.73;;;;;;;;;;6174589;23;20029;-57
2023/06/23 08:47:51;;;;;;;4.05;1.85;;;;;;;;;;6178189;23;20024;-61
2023/06/23 08:50:37;;;;;;;5.13;2.00;;;;;;;;;;6173872;23;20394;-50
2023/06/23 08:53:31;;;;;;;3.05;1.70;;;;;;;;;;6173392;23;20090;-52
2023/06/23 08:56:20;;;;;;;2.20;1.63;;;;;;;;;;6171643;23;20045;-50
2023/06/23 08:59:15;;;;;;;4.53;1.60;;;;;;;;;;6176975;23;20029;-54
2023/06/23 09:02:02;;;;;;;7.20;2.00;;;;;;;;;;6174749;23;20071;-50
2023/06/23 09:04:56;;;;;;;1.98;1.55;;;;;;;;;;6177108;23;20048;-51
2023/06/23 09:07:43;;;;;;;3.88;1.83;;;;;;;;;;6178623;23;20024;-70
2023/06/23 09:10:37;;;;;;;2.25;1.70;;;;;;;;;;6177564;23;20025;-70
2023/06/23 09:13:35;;;;;;;3.35;1.80;;;;;;;;;;6177574;23;20040;-69
2023/06/23 09:16:29;;;;;;;2.65;1.70;;;;;;;;;;6177809;23;20025;-68
2023/06/23 09:19:16;;;;;;;5.13;1.75;;;;;;;;;;6175994;23;20204;-68
2023/06/23 09:22:11;;;;;;;3.42;1.77;;;;;;;;;;6172606;23;20402;-66
2023/06/23 09:25:04;;;;;;;8.60;1.50;;;;;;;;;;6174756;23;20079;-68
2023/06/23 09:27:58;;;;;;;2.47;1.35;;;;;;;;;;6176252;23;20100;-67
2023/06/23 09:30:45;;;;;;;1.75;1.42;;;;;;;;;;6173535;23;20455;-68
2023/06/23 09:33:45;;;;;;;2.05;1.38;;;;;;;;;;6174636;23;20024;-67
2023/06/23 09:36:36;;;;;;;2.22;1.60;;;;;;;;;;6176110;23;20021;-67
2023/06/23 09:39:33;;;;;;;3.05;1.45;;;;;;;;;;6173910;23;20739;-67
2023/06/23 09:42:24;;;;;;;3.05;1.70;;;;;;;;;;6171917;23;20025;-50
2023/06/23 09:45:17;;;;;;;4.07;1.15;;;;;;;;;;6172481;23;20021;-67
2023/06/23 09:48:05;;;;;;;3.45;1.42;;;;;;;;;;6175371;23;20087;-67
2023/06/23 09:51:05;;;;;;;3.92;1.95;;;;;;;;;;6176169;23;20550;-67
2023/06/23 09:54:00;;;;;;;5.60;1.90;;;;;;;;;;6175351;23;20021;-67
2023/06/23 09:57:01;;;;;;;26.83;3.08;;;;;;;;;;6176088;23;20091;-66
2023/06/23 09:59:57;;;;;;;2.95;1.88;;;;;;;;;;6175801;23;20525;-58
2023/06/23 10:02:49;;;;;;;4.18;1.92;;;;;;;;;;6175419;23;20075;-58
2023/06/23 10:05:44;;;;;;;1.70;1.52;;;;;;;;;;6174746;23;20029;-58
2023/06/23 10:08:38;;;;;;;3.33;1.33;;;;;;;;;;6173658;23;20025;-58
2023/06/23 10:11:33;;;;;;;4.32;1.45;;;;;;;;;;6174612;23;20025;-59
2023/06/23 10:14:20;;;;;;;1.98;1.80;;;;;;;;;;6173231;23;20021;-59
2023/06/23 10:17:14;;;;;;;2.42;1.73;;;;;;;;;;6175811;23;20047;-58
2023/06/23 10:20:04;;;;;;;3.92;1.77;;;;;;;;;;6176425;23;20095;-47
2023/06/23 10:23:01;;;;;;;3.05;1.95;;;;;;;;;;6176859;23;20017;-48
2023/06/23 10:25:57;;;;;;;3.45;1.70;;;;;;;;;;6174919;23;20488;-48
2023/06/23 10:28:53;;;;;;;2.55;1.58;;;;;;;;;;6176586;23;20108;-50
2023/06/23 10:31:41;;;;;;;3.03;1.50;;;;;;;;;;6175712;23;20049;-51
2023/06/23 10:34:35;;;;;;;1.88;1.65;;;;;;;;;;6176034;23;20481;-51
2023/06/23 10:37:23;;;;;;;3.33;1.73;;;;;;;;;;6172460;23;20060;-46
2023/06/23 10:40:19;;;;;;;2.10;1.90;;;;;;;;;;6176081;23;20036;-51
2023/06/23 10:43:06;;;;;;;3.40;1.90;;;;;;;;;;6172825;23;20793;-50
2023/06/23 10:46:07;;;;;;;2.38;1.73;;;;;;;;;;6176312;23;20021;-52
2023/06/23 10:48:55;;;;;;;2.53;1.75;;;;;;;;;;6177012;23;20021;-48
2023/06/23 10:51:51;;;;;;;2.97;1.63;;;;;;;;;;6178644;23;20024;-52
2023/06/23 10:54:38;;;;;;;2.33;1.73;;;;;;;;;;6176189;23;20386;-52
2023/06/23 10:57:33;;;;;;;1.95;1.67;;;;;;;;;;6176772;23;20021;-52
2023/06/23 11:00:31;;;;;;;4.25;1.67;;;;;;;;;;6176449;23;20021;-52
2023/06/23 11:03:27;;;;;;;1.98;1.65;;;;;;;;;;6178197;23;20048;-47
2023/06/23 11:06:25;;;;;;;2.97;1.63;;;;;;;;;;6178562;23;20596;-51
2023/06/23 11:09:38;;;;;;;2.80;1.63;;;;;;;;;;6179382;23;20079;-48
2023/06/23 11:12:29;;;;;;;1.77;1.38;;;;;;;;;;6176668;23;20032;-59
2023/06/23 11:15:27;;;;;;;2.75;1.50;;;;;;;;;;6179881;23;20044;-58
2023/06/23 11:18:23;;;;;;;3.38;1.40;;;;;;;;;;6178911;23;20017;-60
2023/06/23 11:21:29;;;;;;;2.70;1.60;;;;;;;;;;6179456;23;20017;-59
2023/06/23 11:24:36;;;;;;;3.33;1.55;;;;;;;;;;6177600;23;20029;-58
2023/06/23 11:27:31;;;;;;;3.80;1.73;;;;;;;;;;6179044;23;20021;-47
2023/06/23 11:30:24;;;;;;;1.88;1.70;;;;;;;;;;6179573;23;20363;-49
2023/06/23 11:33:26;;;;;;;2.13;1.50;;;;;;;;;;6180184;23;20095;-47
2023/06/23 11:36:17;;;;;;;2.10;1.70;;;;;;;;;;6179035;23;20358;-48
2023/06/23 11:39:09;;;;;;;2.65;1.60;;;;;;;;;;6177467;23;20402;-51
2023/06/23 11:41:57;;;;;;;3.17;1.67;;;;;;;;;;6178857;23;20124;-67
2023/06/23 11:44:51;;;;;;;2.55;1.70;;;;;;;;;;6178637;23;20079;-67
2023/06/23 11:47:38;;;;;;;2.42;1.67;;;;;;;;;;6178252;23;20021;-68
2023/06/23 11:50:33;;;;;;;1.58;1.27;;;;;;;;;;6179564;23;20029;-67
2023/06/23 11:53:20;;;;;;;2.10;1.60;;;;;;;;;;6178449;23;20021;-56
2023/06/23 11:56:15;;;;;;;4.43;1.48;;;;;;;;;;6178185;23;20489;-53
2023/06/23 11:59:04;;;;;;;4.85;1.52;;;;;;;;;;6178194;23;20025;-51
2023/06/23 12:02:01;;;;;;;2.10;1.50;;;;;;;;;;6176896;23;20092;-54
2023/06/23 12:04:49;;;;;;;1.88;1.40;;;;;;;;;;6177326;23;20021;-53
2023/06/23 12:07:43;;;;;;;2.58;1.45;;;;;;;;;;6177225;23;20021;-54
2023/06/23 12:10:35;;;;;;;4.28;1.25;;;;;;;;;;6177138;23;20076;-52
2023/06/23 12:13:29;;;;;;;2.00;1.45;;;;;;;;;;6177625;23;20028;-52
2023/06/23 12:16:16;;;;;;;3.67;1.60;;;;;;;;;;6178846;23;20025;-50
2023/06/23 12:19:10;;;;;;;1.92;1.35;;;;;;;;;;6168800;23;20028;-61
2023/06/23 12:21:58;;;;;;;2.38;1.52;;;;;;;;;;6174684;23;20463;-49
2023/06/23 12:25:04;;;;;;;1.60;1.50;;;;;;;;;;6175697;23;20139;-52
2023/06/23 12:28:00;;;;;;;2.72;1.67;;;;;;;;;;6177116;23;20096;-54
2023/06/23 12:30:54;;;;;;;1.95;1.40;;;;;;;;;;6177591;23;20025;-54
2023/06/23 12:33:41;;;;;;;3.00;1.65;;;;;;;;;;6177050;23;20591;-53
2023/06/23 12:36:39;;;;;;;2.67;1.45;;;;;;;;;;6176408;23;20444;-51
2023/06/23 12:39:26;;;;;;;1.67;1.30;;;;;;;;;;6176305;23;20076;-59
2023/06/23 12:42:19;;;;;;;1.58;1.30;;;;;;;;;;6176768;23;20521;-54
2023/06/23 12:45:10;;;;;;;1.92;1.33;;;;;;;;;;6177846;23;20025;-50
2023/06/23 12:48:04;;;;;;;4.35;1.40;;;;;;;;;;6177778;23;20025;-51
2023/06/23 12:50:54;;;;;;;3.03;1.45;;;;;;;;;;6176664;23;20017;-56
2023/06/23 12:53:48;;;;;;;2.55;1.40;;;;;;;;;;6177090;23;20354;-51
2023/06/23 12:56:35;;;;;;;2.40;1.15;;;;;;;;;;6176992;23;20803;-51
2023/06/23 12:59:29;;;;;;;1.98;1.40;;;;;;;;;;6175785;23;20017;-53
2023/06/23 13:02:18;;;;;;;3.20;1.52;;;;;;;;;;6170474;23;20021;-49
2023/06/23 13:05:10;;;;;;;2.17;1.40;;;;;;;;;;6177176;23;20087;-50
2023/06/23 13:07:58;;;;;;;1.77;1.40;;;;;;;;;;6176481;23;20056;-53
2023/06/23 13:10:52;;;;;;;1.17;1.08;;;;;;;;;;6177052;23;20224;-47
2023/06/23 13:13:39;;;;;;;4.07;1.17;;;;;;;;;;6176886;23;20021;-48
2023/06/23 13:16:33;;;;;;;2.20;1.25;;;;;;;;;;6177311;23;20017;-49
2023/06/23 13:19:20;;;;;;;1.55;1.30;;;;;;;;;;6177400;23;20553;-49
2023/06/23 13:22:14;;;;;;;1.83;1.30;;;;;;;;;;6175788;23;20084;-50
2023/06/23 13:25:08;;;;;;;2.08;1.50;;;;;;;;;;6176554;23;20021;-68
2023/06/23 13:28:09;;;;;;;1.85;1.35;;;;;;;;;;6175800;23;20025;-68
2023/06/23 13:31:04;;;;;;;1.13;1.00;;;;;;;;;;6177207;23;20072;-68
2023/06/23 13:33:58;;;;;;;2.95;1.02;;;;;;;;;;6174939;23;20099;-53
2023/06/23 13:36:54;;;;;;;0.95;0.95;;;;;;;;;;6174994;23;20096;-49
2023/06/23 13:39:48;;;;;;;2.45;1.25;;;;;;;;;;6174212;23;20087;-59
2023/06/23 13:42:42;;;;;;;1.58;1.10;;;;;;;;;;6175993;23;20110;-59
2023/06/23 13:45:29;;;;;;;2.33;1.20;;;;;;;;;;6173589;23;20021;-59
2023/06/23 13:48:24;;;;;;;1.58;1.35;;;;;;;;;;6173158;23;20354;-59
2023/06/23 13:51:11;;;;;;;2.10;1.13;;;;;;;;;;6176309;23;20020;-59
2023/06/23 13:54:05;;;;;;;2.83;1.60;;;;;;;;;;6176272;23;20404;-53
2023/06/23 13:56:52;;;;;;;2.55;1.02;;;;;;;;;;6174825;23;20509;-68
2023/06/23 13:59:46;;;;;;;4.65;1.65;;;;;;;;;;6176065;23;20095;-68
2023/06/23 14:02:33;;;;;;;2.55;1.35;;;;;;;;;;6175179;23;20052;-67
2023/06/23 14:05:27;;;;;;;1.40;1.30;;;;;;;;;;6169015;23;20525;-67
2023/06/23 14:08:22;;;;;;;3.80;1.10;;;;;;;;;;6175275;23;20092;-68
2023/06/23 14:11:16;;;;;;;1.90;1.20;;;;;;;;;;6176327;23;20028;-58
2023/06/23 14:14:10;;;;;;;1.52;1.25;;;;;;;;;;6174941;23;20084;-65
2023/06/23 14:16:57;;;;;;;3.28;1.45;;;;;;;;;;6178110;23;20079;-67
2023/06/23 14:19:51;;;;;;;2.55;0.98;;;;;;;;;;6177432;23;20021;-66
2023/06/23 14:22:38;;;;;;;2.10;1.50;;;;;;;;;;6175286;23;20036;-67
2023/06/23 14:25:38;;;;;;;2.15;1.40;;;;;;;;;;6175166;23;20376;-67
2023/06/23 14:28:31;;;;;;;2.58;1.45;;;;;;;;;;6176763;23;20021;-67
2023/06/23 14:31:26;;;;;;;1.85;1.50;;;;;;;;;;6176137;23;20083;-67
2023/06/23 14:34:20;;;;;;;3.53;1.50;;;;;;;;;;6176726;23;20478;-67
2023/06/23 14:37:14;;;;;;;1.88;1.20;;;;;;;;;;6173965;23;20039;-67
2023/06/23 14:40:04;;;;;;;1.35;1.20;;;;;;;;;;6176479;23;20017;-68
2023/06/23 14:42:55;;;;;;;2.05;1.27;;;;;;;;;;6175276;23;20032;-67
2023/06/23 14:45:42;;;;;;;1.73;1.25;;;;;;;;;;6175188;23;20394;-67
2023/06/23 14:48:36;;;;;;;4.13;1.25;;;;;;;;;;6174919;23;20533;-56
2023/06/23 14:51:23;;;;;;;1.88;1.08;;;;;;;;;;6176238;23;20071;-57
2023/06/23 14:54:17;;;;;;;3.65;1.27;;;;;;;;;;6175702;23;20132;-55
2023/06/23 14:57:04;;;;;;;1.40;1.30;;;;;;;;;;6176103;23;20429;-54
2023/06/23 14:59:58;;;;;;;1.83;1.38;;;;;;;;;;6175828;23;20027;-53
2023/06/23 15:02:52;;;;;;;1.85;1.67;;;;;;;;;;6176169;23;20324;-54
2023/06/23 15:05:48;;;;;;;5.40;1.83;;;;;;;;;;6173266;23;20096;-59
2023/06/23 15:08:35;;;;;;;1.75;1.50;;;;;;;;;;6175495;23;20024;-49
2023/06/23 15:11:29;;;;;;;2.13;1.30;;;;;;;;;;6176488;23;20017;-49
2023/06/23 15:14:16;;;;;;;1.92;1.50;;;;;;;;;;6174793;23;20509;-52
2023/06/23 15:17:10;;;;;;;2.58;1.67;;;;;;;;;;6176422;23;20071;-52
2023/06/23 15:19:57;;;;;;;2.75;1.70;;;;;;;;;;6177670;23;20021;-48
2023/06/23 23:24:22;;;;;;;27.95;15.27;;;;;;;;;;6259644;22;20070;-48
2023/06/23 23:26:59;;;;;;;29.25;15.73;;;;;;;;;;6270211;22;20085;-57
2023/06/23 23:29:26;;;;;;;30.88;15.73;;;;;;;;;;6267391;22;20016;-59
2023/06/23 23:31:54;;;;;;;25.02;14.90;;;;;;;;;;6267754;22;20028;-59
2023/06/23 23:34:50;;;;;;;29.67;15.80;;;;;;;;;;6266695;22;20103;-59
2023/06/23 23:37:39;;;;;;;32.78;18.15;;;;;;;;;;6267379;22;20093;-57
2023/06/23 23:40:29;;;;;;;42.53;17.77;;;;;;;;;;6266853;22;20016;-49
2023/06/23 23:43:16;;;;;;;35.95;18.05;;;;;;;;;;6268115;22;20085;-47
2023/06/23 23:46:11;;;;;;;26.83;16.65;;;;;;;;;;6265083;22;20082;-47
2023/06/23 23:48:57;;;;;;;38.70;18.27;;;;;;;;;;6267650;22;20023;-50
2023/06/23 23:51:51;;;;;;;44.50;18.95;;;;;;;;;;6270117;22;20518;-50
2023/06/23 23:54:39;;;;;;;43.17;20.35;;;;;;;;;;6269031;22;20027;-48
2023/06/23 23:57:32;;;;;;;37.85;19.25;;;;;;;;;;6269258;22;20069;-46
